sensor_id;sensor_type;location;lat;lon;timestamp;P1;durP1;ratioP1;P2;durP2;ratioP2
73869;SDS011;64924;42.140;24.762;2023-04-09T00:00:22;18.23;;;10.73;;
73869;SDS011;64924;42.140;24.762;2023-04-09T00:02:48;17.00;;;10.88;;
73869;SDS011;64924;42.140;24.762;2023-04-09T00:05:13;13.70;;;9.50;;
73869;SDS011;64924;42.140;24.762;2023-04-09T00:07:39;17.33;;;11.38;;
73869;SDS011;64924;42.140;24.762;2023-04-09T00:10:05;15.57;;;9.90;;
73869;SDS011;64924;42.140;24.762;2023-04-09T00:12:31;14.77;;;10.10;;
73869;SDS011;64924;42.140;24.762;2023-04-09T00:14:56;14.88;;;10.52;;
73869;SDS011;64924;42.140;24.762;2023-04-09T00:17:22;18.20;;;10.73;;
73869;SDS011;64924;42.140;24.762;2023-04-09T00:19:47;17.33;;;10.25;;
73869;SDS011;64924;42.140;24.762;2023-04-09T00:22:13;19.95;;;11.05;;
73869;SDS011;64924;42.140;24.762;2023-04-09T00:24:39;16.58;;;9.95;;
73869;SDS011;64924;42.140;24.762;2023-04-09T00:27:05;20.50;;;11.38;;
73869;SDS011;64924;42.140;24.762;2023-04-09T00:29:30;16.75;;;10.50;;
73869;SDS011;64924;42.140;24.762;2023-04-09T00:31:56;15.50;;;10.48;;
73869;SDS011;64924;42.140;24.762;2023-04-09T00:34:21;17.38;;;10.45;;
73869;SDS011;64924;42.140;24.762;2023-04-09T00:36:47;18.52;;;11.43;;
73869;SDS011;64924;42.140;24.762;2023-04-09T00:39:12;18.38;;;10.93;;
73869;SDS011;64924;42.140;24.762;2023-04-09T00:41:37;20.10;;;11.07;;
73869;SDS011;64924;42.140;24.762;2023-04-09T00:44:03;17.80;;;10.40;;
73869;SDS011;64924;42.140;24.762;2023-04-09T00:46:29;20.38;;;11.77;;
73869;SDS011;64924;42.140;24.762;2023-04-09T00:48:55;18.60;;;11.68;;
73869;SDS011;64924;42.140;24.762;2023-04-09T00:51:21;19.67;;;11.70;;
73869;SDS011;64924;42.140;24.762;2023-04-09T00:53:46;20.42;;;11.48;;
73869;SDS011;64924;42.140;24.762;2023-04-09T00:56:12;18.70;;;11.65;;
73869;SDS011;64924;42.140;24.762;2023-04-09T00:58:39;23.48;;;11.85;;
73869;SDS011;64924;42.140;24.762;2023-04-09T01:01:05;20.38;;;12.63;;
73869;SDS011;64924;42.140;24.762;2023-04-09T01:03:31;20.05;;;12.60;;
73869;SDS011;64924;42.140;24.762;2023-04-09T01:06:10;22.13;;;13.13;;
73869;SDS011;64924;42.140;24.762;2023-04-09T01:17:10;22.15;;;13.63;;
73869;SDS011;64924;42.140;24.762;2023-04-09T01:28:25;27.02;;;14.25;;
73869;SDS011;64924;42.140;24.762;2023-04-09T01:31:03;22.30;;;12.75;;
73869;SDS011;64924;42.140;24.762;2023-04-09T01:33:33;23.40;;;14.48;;
73869;SDS011;64924;42.140;24.762;2023-04-09T01:36:00;24.63;;;15.93;;
73869;SDS011;64924;42.140;24.762;2023-04-09T01:38:28;21.13;;;11.88;;
73869;SDS011;64924;42.140;24.762;2023-04-09T01:40:53;26.77;;;15.75;;
73869;SDS011;64924;42.140;24.762;2023-04-09T01:43:20;25.58;;;15.40;;
73869;SDS011;64924;42.140;24.762;2023-04-09T01:45:46;29.75;;;16.08;;
73869;SDS011;64924;42.140;24.762;2023-04-09T01:48:13;28.45;;;15.88;;
73869;SDS011;64924;42.140;24.762;2023-04-09T01:50:40;24.80;;;15.43;;
73869;SDS011;64924;42.140;24.762;2023-04-09T01:53:05;23.73;;;14.77;;
73869;SDS011;64924;42.140;24.762;2023-04-09T01:55:31;28.42;;;15.07;;
73869;SDS011;64924;42.140;24.762;2023-04-09T01:57:57;20.10;;;12.57;;
73869;SDS011;64924;42.140;24.762;2023-04-09T02:00:23;24.80;;;14.88;;
73869;SDS011;64924;42.140;24.762;2023-04-09T02:02:59;25.42;;;14.52;;
73869;SDS011;64924;42.140;24.762;2023-04-09T02:05:30;25.02;;;15.02;;
73869;SDS011;64924;42.140;24.762;2023-04-09T02:08:00;22.27;;;13.63;;
73869;SDS011;64924;42.140;24.762;2023-04-09T02:10:28;22.20;;;12.32;;
73869;SDS011;64924;42.140;24.762;2023-04-09T02:12:55;21.45;;;13.90;;
73869;SDS011;64924;42.140;24.762;2023-04-09T02:15:22;26.17;;;13.77;;
73869;SDS011;64924;42.140;24.762;2023-04-09T02:17:49;20.75;;;14.00;;
73869;SDS011;64924;42.140;24.762;2023-04-09T02:20:17;22.90;;;14.30;;
73869;SDS011;64924;42.140;24.762;2023-04-09T02:22:44;23.58;;;14.73;;
73869;SDS011;64924;42.140;24.762;2023-04-09T02:25:10;25.73;;;14.65;;
73869;SDS011;64924;42.140;24.762;2023-04-09T02:27:36;26.20;;;15.70;;
73869;SDS011;64924;42.140;24.762;2023-04-09T02:30:01;22.27;;;14.02;;
73869;SDS011;64924;42.140;24.762;2023-04-09T02:32:28;26.40;;;15.55;;
73869;SDS011;64924;42.140;24.762;2023-04-09T02:34:53;24.00;;;14.50;;
73869;SDS011;64924;42.140;24.762;2023-04-09T02:37:19;26.73;;;14.90;;
73869;SDS011;64924;42.140;24.762;2023-04-09T02:39:44;21.70;;;13.75;;
73869;SDS011;64924;42.140;24.762;2023-04-09T02:42:10;24.58;;;15.13;;
73869;SDS011;64924;42.140;24.762;2023-04-09T02:44:35;25.20;;;15.25;;
73869;SDS011;64924;42.140;24.762;2023-04-09T02:47:01;24.20;;;15.57;;
73869;SDS011;64924;42.140;24.762;2023-04-09T02:49:27;27.70;;;16.80;;
73869;SDS011;64924;42.140;24.762;2023-04-09T02:51:52;25.38;;;15.18;;
73869;SDS011;64924;42.140;24.762;2023-04-09T02:54:18;29.05;;;16.40;;
73869;SDS011;64924;42.140;24.762;2023-04-09T02:56:43;35.20;;;18.85;;
73869;SDS011;64924;42.140;24.762;2023-04-09T02:59:09;24.25;;;14.88;;
73869;SDS011;64924;42.140;24.762;2023-04-09T03:01:35;32.85;;;16.58;;
73869;SDS011;64924;42.140;24.762;2023-04-09T03:04:00;29.52;;;16.77;;
73869;SDS011;64924;42.140;24.762;2023-04-09T03:06:26;30.08;;;18.92;;
73869;SDS011;64924;42.140;24.762;2023-04-09T03:08:51;32.88;;;19.15;;
73869;SDS011;64924;42.140;24.762;2023-04-09T03:11:17;26.25;;;12.75;;
73869;SDS011;64924;42.140;24.762;2023-04-09T03:13:42;31.92;;;18.58;;
73869;SDS011;64924;42.140;24.762;2023-04-09T03:16:08;32.95;;;19.30;;
73869;SDS011;64924;42.140;24.762;2023-04-09T03:18:34;33.70;;;18.48;;
73869;SDS011;64924;42.140;24.762;2023-04-09T03:21:03;33.05;;;20.13;;
73869;SDS011;64924;42.140;24.762;2023-04-09T03:23:32;38.28;;;20.48;;
73869;SDS011;64924;42.140;24.762;2023-04-09T03:26:02;39.05;;;20.67;;
73869;SDS011;64924;42.140;24.762;2023-04-09T03:30:54;35.65;;;19.13;;
73869;SDS011;64924;42.140;24.762;2023-04-09T03:33:20;40.00;;;20.80;;
73869;SDS011;64924;42.140;24.762;2023-04-09T03:35:45;35.97;;;21.90;;
73869;SDS011;64924;42.140;24.762;2023-04-09T03:38:11;40.20;;;21.42;;
73869;SDS011;64924;42.140;24.762;2023-04-09T03:40:36;38.05;;;22.40;;
73869;SDS011;64924;42.140;24.762;2023-04-09T03:43:01;34.60;;;20.05;;
73869;SDS011;64924;42.140;24.762;2023-04-09T03:45:28;39.20;;;22.10;;
73869;SDS011;64924;42.140;24.762;2023-04-09T03:47:54;35.00;;;20.50;;
73869;SDS011;64924;42.140;24.762;2023-04-09T03:50:19;40.53;;;22.50;;
73869;SDS011;64924;42.140;24.762;2023-04-09T03:52:45;40.65;;;21.88;;
73869;SDS011;64924;42.140;24.762;2023-04-09T03:55:11;40.53;;;21.85;;
73869;SDS011;64924;42.140;24.762;2023-04-09T03:57:36;39.28;;;21.02;;
73869;SDS011;64924;42.140;24.762;2023-04-09T04:00:02;34.42;;;19.52;;
73869;SDS011;64924;42.140;24.762;2023-04-09T04:02:28;42.22;;;22.40;;
73869;SDS011;64924;42.140;24.762;2023-04-09T04:04:57;35.47;;;20.13;;
73869;SDS011;64924;42.140;24.762;2023-04-09T04:07:23;41.53;;;22.38;;
73869;SDS011;64924;42.140;24.762;2023-04-09T04:09:48;36.83;;;20.38;;
73869;SDS011;64924;42.140;24.762;2023-04-09T04:12:14;39.40;;;21.48;;
73869;SDS011;64924;42.140;24.762;2023-04-09T04:14:39;38.70;;;20.27;;
73869;SDS011;64924;42.140;24.762;2023-04-09T04:17:05;39.28;;;22.23;;
73869;SDS011;64924;42.140;24.762;2023-04-09T04:19:30;36.47;;;21.42;;
73869;SDS011;64924;42.140;24.762;2023-04-09T04:21:56;41.25;;;22.33;;
73869;SDS011;64924;42.140;24.762;2023-04-09T04:24:21;41.30;;;22.65;;
73869;SDS011;64924;42.140;24.762;2023-04-09T04:26:47;43.08;;;22.15;;
73869;SDS011;64924;42.140;24.762;2023-04-09T04:29:12;40.08;;;21.50;;
73869;SDS011;64924;42.140;24.762;2023-04-09T04:31:38;40.42;;;21.88;;
73869;SDS011;64924;42.140;24.762;2023-04-09T04:34:03;38.90;;;20.52;;
73869;SDS011;64924;42.140;24.762;2023-04-09T04:36:29;41.03;;;21.45;;
73869;SDS011;64924;42.140;24.762;2023-04-09T04:38:55;44.30;;;22.70;;
73869;SDS011;64924;42.140;24.762;2023-04-09T04:41:20;36.70;;;20.52;;
73869;SDS011;64924;42.140;24.762;2023-04-09T04:43:46;40.17;;;20.70;;
73869;SDS011;64924;42.140;24.762;2023-04-09T04:46:12;41.08;;;22.13;;
73869;SDS011;64924;42.140;24.762;2023-04-09T04:48:37;33.75;;;18.40;;
73869;SDS011;64924;42.140;24.762;2023-04-09T04:51:03;40.72;;;22.73;;
73869;SDS011;64924;42.140;24.762;2023-04-09T04:53:28;36.55;;;20.27;;
73869;SDS011;64924;42.140;24.762;2023-04-09T04:55:54;37.50;;;22.58;;
73869;SDS011;64924;42.140;24.762;2023-04-09T04:58:19;39.10;;;22.63;;
73869;SDS011;64924;42.140;24.762;2023-04-09T05:00:45;41.95;;;22.52;;
73869;SDS011;64924;42.140;24.762;2023-04-09T05:03:11;38.67;;;21.10;;
73869;SDS011;64924;42.140;24.762;2023-04-09T05:05:36;37.35;;;19.83;;
73869;SDS011;64924;42.140;24.762;2023-04-09T05:08:02;43.80;;;22.77;;
73869;SDS011;64924;42.140;24.762;2023-04-09T05:10:28;46.53;;;23.33;;
73869;SDS011;64924;42.140;24.762;2023-04-09T05:12:53;44.15;;;23.42;;
73869;SDS011;64924;42.140;24.762;2023-04-09T05:15:19;47.28;;;25.42;;
73869;SDS011;64924;42.140;24.762;2023-04-09T05:17:44;53.15;;;26.88;;
73869;SDS011;64924;42.140;24.762;2023-04-09T05:20:10;42.17;;;22.70;;
73869;SDS011;64924;42.140;24.762;2023-04-09T05:22:36;45.10;;;22.30;;
73869;SDS011;64924;42.140;24.762;2023-04-09T05:25:01;44.78;;;23.85;;
73869;SDS011;64924;42.140;24.762;2023-04-09T05:27:27;41.28;;;22.05;;
73869;SDS011;64924;42.140;24.762;2023-04-09T05:29:53;45.72;;;22.17;;
73869;SDS011;64924;42.140;24.762;2023-04-09T05:32:18;41.22;;;20.58;;
73869;SDS011;64924;42.140;24.762;2023-04-09T05:34:44;39.92;;;21.10;;
73869;SDS011;64924;42.140;24.762;2023-04-09T05:37:09;39.13;;;20.90;;
73869;SDS011;64924;42.140;24.762;2023-04-09T05:39:35;40.58;;;20.90;;
73869;SDS011;64924;42.140;24.762;2023-04-09T05:42:01;35.33;;;19.73;;
73869;SDS011;64924;42.140;24.762;2023-04-09T05:44:27;45.35;;;21.52;;
73869;SDS011;64924;42.140;24.762;2023-04-09T05:46:52;40.13;;;19.88;;
73869;SDS011;64924;42.140;24.762;2023-04-09T05:49:18;42.60;;;21.10;;
73869;SDS011;64924;42.140;24.762;2023-04-09T05:51:43;40.95;;;21.45;;
73869;SDS011;64924;42.140;24.762;2023-04-09T05:54:09;46.67;;;23.25;;
73869;SDS011;64924;42.140;24.762;2023-04-09T05:56:35;47.25;;;22.52;;
73869;SDS011;64924;42.140;24.762;2023-04-09T05:59:01;45.88;;;21.38;;
73869;SDS011;64924;42.140;24.762;2023-04-09T06:01:26;49.83;;;21.65;;
73869;SDS011;64924;42.140;24.762;2023-04-09T06:03:53;45.33;;;21.85;;
73869;SDS011;64924;42.140;24.762;2023-04-09T06:06:19;46.40;;;20.90;;
73869;SDS011;64924;42.140;24.762;2023-04-09T06:08:45;49.53;;;21.58;;
73869;SDS011;64924;42.140;24.762;2023-04-09T06:11:11;45.95;;;22.60;;
73869;SDS011;64924;42.140;24.762;2023-04-09T06:13:37;40.45;;;21.75;;
73869;SDS011;64924;42.140;24.762;2023-04-09T06:16:04;49.33;;;22.00;;
73869;SDS011;64924;42.140;24.762;2023-04-09T06:18:30;41.22;;;21.60;;
73869;SDS011;64924;42.140;24.762;2023-04-09T06:21:00;41.20;;;20.05;;
73869;SDS011;64924;42.140;24.762;2023-04-09T06:23:27;37.63;;;17.38;;
73869;SDS011;64924;42.140;24.762;2023-04-09T06:25:52;32.20;;;16.35;;
73869;SDS011;64924;42.140;24.762;2023-04-09T06:28:18;39.40;;;16.15;;
73869;SDS011;64924;42.140;24.762;2023-04-09T06:30:43;31.85;;;15.90;;
73869;SDS011;64924;42.140;24.762;2023-04-09T06:33:09;27.65;;;13.73;;
73869;SDS011;64924;42.140;24.762;2023-04-09T06:35:34;32.60;;;16.17;;
73869;SDS011;64924;42.140;24.762;2023-04-09T06:38:00;21.65;;;12.02;;
73869;SDS011;64924;42.140;24.762;2023-04-09T06:40:25;22.58;;;11.68;;
73869;SDS011;64924;42.140;24.762;2023-04-09T06:42:51;21.05;;;12.18;;
73869;SDS011;64924;42.140;24.762;2023-04-09T06:45:16;23.38;;;13.82;;
73869;SDS011;64924;42.140;24.762;2023-04-09T06:47:42;21.55;;;12.25;;
73869;SDS011;64924;42.140;24.762;2023-04-09T06:50:07;20.52;;;12.30;;
73869;SDS011;64924;42.140;24.762;2023-04-09T06:52:33;20.95;;;12.10;;
73869;SDS011;64924;42.140;24.762;2023-04-09T06:54:58;31.80;;;18.08;;
73869;SDS011;64924;42.140;24.762;2023-04-09T06:57:24;20.77;;;12.65;;
73869;SDS011;64924;42.140;24.762;2023-04-09T06:59:51;19.45;;;12.88;;
73869;SDS011;64924;42.140;24.762;2023-04-09T07:02:16;20.42;;;12.10;;
73869;SDS011;64924;42.140;24.762;2023-04-09T07:04:42;19.92;;;11.18;;
73869;SDS011;64924;42.140;24.762;2023-04-09T07:07:07;19.17;;;11.32;;
73869;SDS011;64924;42.140;24.762;2023-04-09T07:09:33;17.83;;;11.32;;
73869;SDS011;64924;42.140;24.762;2023-04-09T07:11:58;15.98;;;11.20;;
73869;SDS011;64924;42.140;24.762;2023-04-09T07:14:23;24.02;;;12.77;;
73869;SDS011;64924;42.140;24.762;2023-04-09T07:16:49;16.40;;;10.00;;
73869;SDS011;64924;42.140;24.762;2023-04-09T07:19:14;18.40;;;11.45;;
73869;SDS011;64924;42.140;24.762;2023-04-09T07:21:40;17.48;;;10.95;;
73869;SDS011;64924;42.140;24.762;2023-04-09T07:24:05;22.33;;;11.80;;
73869;SDS011;64924;42.140;24.762;2023-04-09T07:26:31;15.80;;;10.57;;
73869;SDS011;64924;42.140;24.762;2023-04-09T07:28:57;16.33;;;10.32;;
73869;SDS011;64924;42.140;24.762;2023-04-09T07:31:23;16.98;;;10.15;;
73869;SDS011;64924;42.140;24.762;2023-04-09T07:33:49;12.95;;;8.95;;
73869;SDS011;64924;42.140;24.762;2023-04-09T07:36:14;14.60;;;10.02;;
73869;SDS011;64924;42.140;24.762;2023-04-09T07:38:40;14.18;;;10.40;;
73869;SDS011;64924;42.140;24.762;2023-04-09T07:41:05;16.45;;;9.90;;
73869;SDS011;64924;42.140;24.762;2023-04-09T07:43:31;11.15;;;8.40;;
73869;SDS011;64924;42.140;24.762;2023-04-09T07:45:57;13.20;;;8.27;;
73869;SDS011;64924;42.140;24.762;2023-04-09T07:48:22;11.90;;;8.23;;
73869;SDS011;64924;42.140;24.762;2023-04-09T07:50:48;12.13;;;8.30;;
73869;SDS011;64924;42.140;24.762;2023-04-09T07:53:13;15.13;;;9.15;;
73869;SDS011;64924;42.140;24.762;2023-04-09T07:55:39;11.63;;;8.05;;
73869;SDS011;64924;42.140;24.762;2023-04-09T07:58:05;9.85;;;7.65;;
73869;SDS011;64924;42.140;24.762;2023-04-09T08:00:31;9.93;;;7.80;;
73869;SDS011;64924;42.140;24.762;2023-04-09T08:02:56;8.85;;;7.25;;
73869;SDS011;64924;42.140;24.762;2023-04-09T08:05:22;13.10;;;7.25;;
73869;SDS011;64924;42.140;24.762;2023-04-09T08:07:49;10.20;;;7.40;;
73869;SDS011;64924;42.140;24.762;2023-04-09T08:10:15;9.68;;;6.65;;
73869;SDS011;64924;42.140;24.762;2023-04-09T08:12:41;11.75;;;7.28;;
73869;SDS011;64924;42.140;24.762;2023-04-09T08:15:06;10.82;;;7.70;;
73869;SDS011;64924;42.140;24.762;2023-04-09T08:17:32;10.60;;;7.60;;
73869;SDS011;64924;42.140;24.762;2023-04-09T08:20:00;9.50;;;6.43;;
73869;SDS011;64924;42.140;24.762;2023-04-09T08:22:26;9.82;;;6.60;;
73869;SDS011;64924;42.140;24.762;2023-04-09T08:24:52;8.90;;;6.38;;
73869;SDS011;64924;42.140;24.762;2023-04-09T08:27:18;6.75;;;5.50;;
73869;SDS011;64924;42.140;24.762;2023-04-09T08:29:43;8.60;;;6.78;;
73869;SDS011;64924;42.140;24.762;2023-04-09T08:32:09;8.02;;;5.97;;
73869;SDS011;64924;42.140;24.762;2023-04-09T08:34:35;8.25;;;5.57;;
73869;SDS011;64924;42.140;24.762;2023-04-09T08:37:01;6.88;;;6.07;;
73869;SDS011;64924;42.140;24.762;2023-04-09T08:39:27;9.52;;;6.35;;
73869;SDS011;64924;42.140;24.762;2023-04-09T08:41:53;12.93;;;10.60;;
73869;SDS011;64924;42.140;24.762;2023-04-09T08:44:24;12.00;;;8.35;;
73869;SDS011;64924;42.140;24.762;2023-04-09T08:46:50;8.15;;;6.75;;
73869;SDS011;64924;42.140;24.762;2023-04-09T08:49:16;11.68;;;7.85;;
73869;SDS011;64924;42.140;24.762;2023-04-09T08:51:44;12.65;;;7.78;;
73869;SDS011;64924;42.140;24.762;2023-04-09T08:54:15;9.55;;;7.72;;
73869;SDS011;64924;42.140;24.762;2023-04-09T08:56:43;8.95;;;7.55;;
73869;SDS011;64924;42.140;24.762;2023-04-09T08:59:10;9.18;;;7.80;;
73869;SDS011;64924;42.140;24.762;2023-04-09T09:01:35;13.23;;;8.35;;
73869;SDS011;64924;42.140;24.762;2023-04-09T09:04:02;8.95;;;7.35;;
73869;SDS011;64924;42.140;24.762;2023-04-09T09:06:32;12.55;;;7.97;;
73869;SDS011;64924;42.140;24.762;2023-04-09T09:11:39;13.40;;;8.95;;
73869;SDS011;64924;42.140;24.762;2023-04-09T09:14:16;11.43;;;8.75;;
73869;SDS011;64924;42.140;24.762;2023-04-09T09:19:28;9.57;;;7.40;;
73869;SDS011;64924;42.140;24.762;2023-04-09T09:21:55;11.40;;;8.95;;
73869;SDS011;64924;42.140;24.762;2023-04-09T09:24:21;11.02;;;8.35;;
73869;SDS011;64924;42.140;24.762;2023-04-09T09:26:47;11.93;;;9.10;;
73869;SDS011;64924;42.140;24.762;2023-04-09T09:29:12;8.90;;;7.97;;
73869;SDS011;64924;42.140;24.762;2023-04-09T09:31:45;14.35;;;7.72;;
73869;SDS011;64924;42.140;24.762;2023-04-09T09:34:14;12.30;;;9.05;;
73869;SDS011;64924;42.140;24.762;2023-04-09T09:36:43;9.57;;;7.97;;
73869;SDS011;64924;42.140;24.762;2023-04-09T09:39:09;9.40;;;7.57;;
73869;SDS011;64924;42.140;24.762;2023-04-09T09:41:37;9.45;;;7.28;;
73869;SDS011;64924;42.140;24.762;2023-04-09T09:44:03;9.77;;;7.57;;
73869;SDS011;64924;42.140;24.762;2023-04-09T09:46:35;12.45;;;8.00;;
73869;SDS011;64924;42.140;24.762;2023-04-09T09:49:02;9.95;;;8.43;;
73869;SDS011;64924;42.140;24.762;2023-04-09T09:51:29;8.63;;;7.47;;
73869;SDS011;64924;42.140;24.762;2023-04-09T09:53:57;9.93;;;7.47;;
73869;SDS011;64924;42.140;24.762;2023-04-09T09:56:24;9.25;;;7.28;;
73869;SDS011;64924;42.140;24.762;2023-04-09T09:59:16;11.80;;;7.80;;
73869;SDS011;64924;42.140;24.762;2023-04-09T10:01:50;11.23;;;8.25;;
73869;SDS011;64924;42.140;24.762;2023-04-09T10:04:27;10.23;;;8.23;;
73869;SDS011;64924;42.140;24.762;2023-04-09T10:06:54;10.75;;;8.98;;
73869;SDS011;64924;42.140;24.762;2023-04-09T10:09:21;11.55;;;8.32;;
73869;SDS011;64924;42.140;24.762;2023-04-09T10:11:47;9.10;;;7.20;;
73869;SDS011;64924;42.140;24.762;2023-04-09T10:14:13;9.52;;;6.80;;
73869;SDS011;64924;42.140;24.762;2023-04-09T10:16:42;9.68;;;6.95;;
73869;SDS011;64924;42.140;24.762;2023-04-09T10:19:07;10.80;;;7.45;;
73869;SDS011;64924;42.140;24.762;2023-04-09T10:21:55;10.18;;;6.32;;
73869;SDS011;64924;42.140;24.762;2023-04-09T10:24:28;8.85;;;6.20;;
73869;SDS011;64924;42.140;24.762;2023-04-09T10:26:56;9.73;;;6.68;;
73869;SDS011;64924;42.140;24.762;2023-04-09T10:29:32;9.10;;;7.35;;
73869;SDS011;64924;42.140;24.762;2023-04-09T10:32:05;9.20;;;7.32;;
73869;SDS011;64924;42.140;24.762;2023-04-09T10:34:38;8.68;;;6.68;;
73869;SDS011;64924;42.140;24.762;2023-04-09T10:37:08;10.27;;;6.72;;
73869;SDS011;64924;42.140;24.762;2023-04-09T10:39:54;9.37;;;6.97;;
73869;SDS011;64924;42.140;24.762;2023-04-09T10:42:38;9.45;;;7.45;;
73869;SDS011;64924;42.140;24.762;2023-04-09T10:45:06;10.48;;;7.55;;
73869;SDS011;64924;42.140;24.762;2023-04-09T10:47:36;8.05;;;7.25;;
73869;SDS011;64924;42.140;24.762;2023-04-09T10:50:16;6.80;;;5.10;;
73869;SDS011;64924;42.140;24.762;2023-04-09T10:52:41;9.48;;;5.57;;
73869;SDS011;64924;42.140;24.762;2023-04-09T10:55:08;7.32;;;4.93;;
73869;SDS011;64924;42.140;24.762;2023-04-09T10:57:42;6.65;;;5.72;;
73869;SDS011;64924;42.140;24.762;2023-04-09T11:00:08;8.07;;;5.70;;
73869;SDS011;64924;42.140;24.762;2023-04-09T11:07:42;6.40;;;3.60;;
73869;SDS011;64924;42.140;24.762;2023-04-09T11:10:11;4.65;;;3.65;;
73869;SDS011;64924;42.140;24.762;2023-04-09T11:12:36;4.40;;;3.40;;
73869;SDS011;64924;42.140;24.762;2023-04-09T11:15:02;6.38;;;3.47;;
73869;SDS011;64924;42.140;24.762;2023-04-09T11:17:28;4.22;;;3.28;;
73869;SDS011;64924;42.140;24.762;2023-04-09T11:19:54;5.03;;;3.85;;
73869;SDS011;64924;42.140;24.762;2023-04-09T11:22:20;4.50;;;3.47;;
73869;SDS011;64924;42.140;24.762;2023-04-09T11:24:45;6.20;;;3.20;;
73869;SDS011;64924;42.140;24.762;2023-04-09T11:27:11;4.10;;;3.40;;
73869;SDS011;64924;42.140;24.762;2023-04-09T11:29:37;4.68;;;3.60;;
73869;SDS011;64924;42.140;24.762;2023-04-09T11:32:03;5.35;;;3.83;;
73869;SDS011;64924;42.140;24.762;2023-04-09T11:34:29;5.25;;;3.85;;
73869;SDS011;64924;42.140;24.762;2023-04-09T11:36:55;5.05;;;3.78;;
73869;SDS011;64924;42.140;24.762;2023-04-09T11:39:23;5.88;;;3.80;;
73869;SDS011;64924;42.140;24.762;2023-04-09T11:41:48;5.50;;;4.32;;
73869;SDS011;64924;42.140;24.762;2023-04-09T11:44:14;6.80;;;4.38;;
73869;SDS011;64924;42.140;24.762;2023-04-09T11:46:40;5.72;;;4.38;;
73869;SDS011;64924;42.140;24.762;2023-04-09T11:49:06;4.88;;;3.58;;
73869;SDS011;64924;42.140;24.762;2023-04-09T11:51:32;5.05;;;4.25;;
73869;SDS011;64924;42.140;24.762;2023-04-09T11:54:02;5.35;;;3.70;;
73869;SDS011;64924;42.140;24.762;2023-04-09T11:56:29;8.23;;;4.68;;
73869;SDS011;64924;42.140;24.762;2023-04-09T11:58:56;6.30;;;4.28;;
73869;SDS011;64924;42.140;24.762;2023-04-09T12:01:22;5.30;;;4.32;;
73869;SDS011;64924;42.140;24.762;2023-04-09T12:03:52;7.32;;;4.00;;
73869;SDS011;64924;42.140;24.762;2023-04-09T12:06:19;6.63;;;4.05;;
73869;SDS011;64924;42.140;24.762;2023-04-09T12:08:46;6.38;;;4.40;;
73869;SDS011;64924;42.140;24.762;2023-04-09T12:11:16;5.25;;;3.83;;
73869;SDS011;64924;42.140;24.762;2023-04-09T12:13:42;6.20;;;4.47;;
73869;SDS011;64924;42.140;24.762;2023-04-09T12:16:09;5.00;;;3.75;;
73869;SDS011;64924;42.140;24.762;2023-04-09T12:18:37;5.20;;;4.35;;
73869;SDS011;64924;42.140;24.762;2023-04-09T12:21:03;6.63;;;4.35;;
73869;SDS011;64924;42.140;24.762;2023-04-09T12:23:30;6.38;;;4.35;;
73869;SDS011;64924;42.140;24.762;2023-04-09T12:25:56;5.93;;;4.70;;
73869;SDS011;64924;42.140;24.762;2023-04-09T12:28:25;5.88;;;5.00;;
73869;SDS011;64924;42.140;24.762;2023-04-09T12:30:51;5.80;;;4.93;;
73869;SDS011;64924;42.140;24.762;2023-04-09T12:33:17;6.20;;;5.25;;
73869;SDS011;64924;42.140;24.762;2023-04-09T12:35:43;6.28;;;5.32;;
73869;SDS011;64924;42.140;24.762;2023-04-09T12:38:08;7.03;;;5.40;;
73869;SDS011;64924;42.140;24.762;2023-04-09T12:40:34;7.43;;;4.53;;
73869;SDS011;64924;42.140;24.762;2023-04-09T12:43:01;5.70;;;4.65;;
73869;SDS011;64924;42.140;24.762;2023-04-09T12:45:28;6.63;;;5.28;;
73869;SDS011;64924;42.140;24.762;2023-04-09T12:47:54;7.55;;;5.22;;
73869;SDS011;64924;42.140;24.762;2023-04-09T12:50:20;9.18;;;4.80;;
73869;SDS011;64924;42.140;24.762;2023-04-09T12:52:46;7.00;;;4.97;;
73869;SDS011;64924;42.140;24.762;2023-04-09T12:55:12;5.38;;;4.35;;
73869;SDS011;64924;42.140;24.762;2023-04-09T12:57:38;5.65;;;4.45;;
73869;SDS011;64924;42.140;24.762;2023-04-09T13:00:06;6.65;;;4.90;;
73869;SDS011;64924;42.140;24.762;2023-04-09T13:02:33;8.98;;;5.30;;
73869;SDS011;64924;42.140;24.762;2023-04-09T13:04:58;6.50;;;4.70;;
73869;SDS011;64924;42.140;24.762;2023-04-09T13:07:24;7.25;;;5.30;;
73869;SDS011;64924;42.140;24.762;2023-04-09T13:09:53;5.68;;;4.18;;
73869;SDS011;64924;42.140;24.762;2023-04-09T13:12:19;5.70;;;4.90;;
73869;SDS011;64924;42.140;24.762;2023-04-09T13:14:46;6.10;;;4.95;;
73869;SDS011;64924;42.140;24.762;2023-04-09T13:17:12;6.00;;;4.72;;
73869;SDS011;64924;42.140;24.762;2023-04-09T13:19:38;5.47;;;4.68;;
73869;SDS011;64924;42.140;24.762;2023-04-09T13:22:03;6.43;;;4.47;;
73869;SDS011;64924;42.140;24.762;2023-04-09T13:24:32;4.40;;;3.90;;
73869;SDS011;64924;42.140;24.762;2023-04-09T13:26:58;6.45;;;4.75;;
73869;SDS011;64924;42.140;24.762;2023-04-09T13:29:24;4.88;;;4.38;;
73869;SDS011;64924;42.140;24.762;2023-04-09T13:31:53;5.93;;;4.35;;
73869;SDS011;64924;42.140;24.762;2023-04-09T13:34:19;5.82;;;4.82;;
73869;SDS011;64924;42.140;24.762;2023-04-09T13:36:45;5.40;;;4.20;;
73869;SDS011;64924;42.140;24.762;2023-04-09T13:39:10;7.75;;;4.40;;
73869;SDS011;64924;42.140;24.762;2023-04-09T13:41:36;6.53;;;4.22;;
73869;SDS011;64924;42.140;24.762;2023-04-09T13:44:02;5.47;;;4.57;;
73869;SDS011;64924;42.140;24.762;2023-04-09T13:46:28;5.38;;;4.38;;
73869;SDS011;64924;42.140;24.762;2023-04-09T13:48:53;5.70;;;3.92;;
73869;SDS011;64924;42.140;24.762;2023-04-09T13:51:22;7.82;;;4.57;;
73869;SDS011;64924;42.140;24.762;2023-04-09T13:53:51;6.95;;;5.18;;
73869;SDS011;64924;42.140;24.762;2023-04-09T13:56:17;7.10;;;4.78;;
73869;SDS011;64924;42.140;24.762;2023-04-09T13:58:42;7.95;;;4.95;;
73869;SDS011;64924;42.140;24.762;2023-04-09T14:01:08;5.47;;;4.45;;
73869;SDS011;64924;42.140;24.762;2023-04-09T14:03:35;6.18;;;4.80;;
73869;SDS011;64924;42.140;24.762;2023-04-09T14:06:04;6.70;;;5.47;;
73869;SDS011;64924;42.140;24.762;2023-04-09T14:08:30;7.75;;;5.80;;
73869;SDS011;64924;42.140;24.762;2023-04-09T14:10:55;7.55;;;5.15;;
73869;SDS011;64924;42.140;24.762;2023-04-09T14:13:21;5.80;;;4.18;;
73869;SDS011;64924;42.140;24.762;2023-04-09T14:15:46;6.50;;;5.25;;
73869;SDS011;64924;42.140;24.762;2023-04-09T14:18:13;7.20;;;5.30;;
73869;SDS011;64924;42.140;24.762;2023-04-09T14:20:39;5.63;;;4.68;;
73869;SDS011;64924;42.140;24.762;2023-04-09T14:23:04;7.60;;;5.05;;
73869;SDS011;64924;42.140;24.762;2023-04-09T14:25:30;5.18;;;4.45;;
73869;SDS011;64924;42.140;24.762;2023-04-09T14:27:55;5.43;;;4.25;;
73869;SDS011;64924;42.140;24.762;2023-04-09T14:30:21;7.00;;;5.30;;
73869;SDS011;64924;42.140;24.762;2023-04-09T14:32:47;6.13;;;4.43;;
73869;SDS011;64924;42.140;24.762;2023-04-09T14:35:12;5.45;;;4.65;;
73869;SDS011;64924;42.140;24.762;2023-04-09T14:37:38;6.03;;;4.88;;
73869;SDS011;64924;42.140;24.762;2023-04-09T14:40:05;6.38;;;4.82;;
73869;SDS011;64924;42.140;24.762;2023-04-09T14:42:32;4.85;;;4.18;;
73869;SDS011;64924;42.140;24.762;2023-04-09T14:44:57;5.60;;;5.00;;
73869;SDS011;64924;42.140;24.762;2023-04-09T14:47:23;8.32;;;4.72;;